Time;durP1;ratioP1;P1;durP2;ratioP2;P2;SDS_P1;SDS_P2;PMS_P1;PMS_P2;Temp;Humidity;BMP_temperature;BMP_pressure;BME280_temperature;BME280_humidity;BME280_pressure;Samples;Min_cycle;Max_cycle;Signal;HPM_P1;HPM_P2
2022/10/15 00:01:41;;;;;;;1999.90;999.90;;;12.50;99.90;;;;;;5090106;28;20104;-66
2022/10/15 00:04:07;;;;;;;1999.90;999.90;;;12.50;99.90;;;;;;5104335;27;20038;-65
2022/10/15 00:06:33;;;;;;;1999.90;999.90;;;12.50;99.90;;;;;;5108851;27;20497;-66
2022/10/15 00:08:58;;;;;;;1999.90;999.90;;;12.50;99.90;;;;;;5121976;27;20047;-65
2022/10/15 00:11:26;;;;;;;1999.90;999.90;;;12.50;99.90;;;;;;5111715;27;20032;-65
2022/10/15 00:13:57;;;;;;;1999.90;999.90;;;12.50;99.90;;;;;;5103168;28;20517;-66
2022/10/15 00:16:26;;;;;;;1999.90;999.90;;;12.50;99.90;;;;;;5096480;27;20082;-66
2022/10/15 00:18:55;;;;;;;1999.90;999.90;;;12.60;99.90;;;;;;5102566;28;20508;-66
2022/10/15 00:21:20;;;;;;;1999.90;999.90;;;12.60;99.90;;;;;;5107832;28;20474;-66
2022/10/15 00:23:47;;;;;;;1999.90;999.90;;;12.50;99.90;;;;;;5106017;27;20040;-66
2022/10/15 00:26:21;;;;;;;1999.90;999.90;;;12.60;99.90;;;;;;5095355;28;20478;-66
2022/10/15 00:28:51;;;;;;;1999.90;999.90;;;12.50;99.90;;;;;;5090175;28;20058;-66
2022/10/15 00:31:23;;;;;;;1999.90;999.90;;;12.50;99.90;;;;;;5108180;28;20035;-65
2022/10/15 00:33:50;;;;;;;1999.90;999.90;;;12.60;99.90;;;;;;5098946;28;20496;-66
2022/10/15 00:36:21;;;;;;;1999.90;999.90;;;12.60;99.90;;;;;;5073259;27;20042;-66
2022/10/15 00:38:47;;;;;;;1999.90;999.90;;;12.60;99.90;;;;;;5082117;28;20089;-66
2022/10/15 00:41:19;;;;;;;1999.90;999.90;;;12.60;99.90;;;;;;5085332;28;20082;-66
2022/10/15 00:43:54;;;;;;;1999.90;999.90;;;12.60;99.90;;;;;;5077918;28;20411;-66
2022/10/15 00:46:26;;;;;;;1999.90;999.90;;;12.60;99.90;;;;;;5115639;27;20046;-66
2022/10/15 00:49:03;;;;;;;1999.90;999.90;;;12.60;99.90;;;;;;5115107;27;20047;-66
2022/10/15 00:51:34;;;;;;;1999.90;999.90;;;12.60;99.90;;;;;;5107570;28;20054;-66
2022/10/15 00:54:00;;;;;;;1999.90;999.90;;;12.60;99.90;;;;;;5107897;28;20361;-66
2022/10/15 00:56:29;;;;;;;1999.90;999.90;;;12.60;99.90;;;;;;5108303;28;20046;-66
2022/10/15 00:58:56;;;;;;;1999.90;999.90;;;12.60;99.90;;;;;;5107786;28;20515;-66
2022/10/15 01:01:24;;;;;;;1999.90;999.90;;;12.60;99.90;;;;;;5097855;28;20496;-66
2022/10/15 01:03:51;;;;;;;1999.90;999.90;;;12.60;99.90;;;;;;5105119;28;20176;-66
2022/10/15 01:06:17;;;;;;;1999.90;999.90;;;12.50;99.90;;;;;;5111748;27;20043;-66
2022/10/15 01:08:42;;;;;;;1999.90;999.90;;;12.50;99.90;;;;;;5093712;28;20028;-65
2022/10/15 01:11:24;;;;;;;1999.90;999.90;;;12.50;99.90;;;;;;5086188;28;20130;-66
2022/10/15 01:14:35;;;;;;;1999.90;999.90;;;12.50;99.90;;;;;;5089965;28;20532;-66
2022/10/15 01:17:20;;;;;;;1999.90;999.90;;;12.50;99.90;;;;;;5108027;28;20046;-66
2022/10/15 01:20:12;;;;;;;1999.90;999.90;;;12.50;99.90;;;;;;5100694;28;20047;-66
2022/10/15 01:22:49;;;;;;;1999.90;999.90;;;12.50;99.90;;;;;;5111782;28;20587;-66
2022/10/15 01:25:54;;;;;;;1999.90;999.90;;;12.50;99.90;;;;;;5118488;28;20397;-66
2022/10/15 01:28:47;;;;;;;1999.90;999.90;;;12.50;99.90;;;;;;5070355;28;20056;-66
2022/10/15 01:31:48;;;;;;;1999.90;999.90;;;12.50;99.90;;;;;;5085946;28;20055;-66
2022/10/15 01:34:26;;;;;;;1999.90;999.90;;;12.40;99.90;;;;;;5075095;28;20290;-66
2022/10/15 01:37:19;;;;;;;1999.90;999.90;;;12.40;99.90;;;;;;5101766;28;20035;-66
2022/10/15 01:39:57;;;;;;;1999.90;999.90;;;12.40;99.90;;;;;;5095844;28;20048;-66
2022/10/15 01:42:39;;;;;;;1999.90;999.90;;;12.40;99.90;;;;;;5107876;28;20044;-66
2022/10/15 01:45:13;;;;;;;1999.90;999.90;;;12.40;99.90;;;;;;5089315;28;20130;-66
2022/10/15 01:48:02;;;;;;;1999.90;999.90;;;12.40;99.90;;;;;;5107360;28;20036;-66
2022/10/15 01:50:30;;;;;;;1999.90;999.90;;;12.40;99.90;;;;;;5109299;28;20214;-66
2022/10/15 01:52:58;;;;;;;1999.90;999.90;;;12.40;99.90;;;;;;5086959;28;20494;-66
2022/10/15 01:55:26;;;;;;;1999.90;999.90;;;12.40;99.90;;;;;;5107646;28;20039;-65
2022/10/15 01:57:55;;;;;;;1999.90;999.90;;;12.30;99.90;;;;;;5089145;28;20063;-65
2022/10/15 02:00:20;;;;;;;1999.90;999.90;;;12.30;99.90;;;;;;5110233;28;20039;-66
2022/10/15 02:02:46;;;;;;;1999.90;999.90;;;12.30;99.90;;;;;;5082531;28;20040;-66
2022/10/15 02:05:18;;;;;;;1999.90;999.90;;;12.30;99.90;;;;;;5107602;28;20024;-66
2022/10/15 02:08:03;;;;;;;1999.90;999.90;;;12.30;99.90;;;;;;5107934;28;20043;-66
2022/10/15 02:10:45;;;;;;;1999.90;999.90;;;12.30;99.90;;;;;;5107677;28;20276;-66
2022/10/15 02:13:55;;;;;;;1999.90;999.90;;;12.30;99.90;;;;;;5097817;28;20031;-66
2022/10/15 02:16:46;;;;;;;1999.90;999.90;;;12.30;99.90;;;;;;5085077;28;20547;-66
2022/10/15 02:19:22;;;;;;;1999.90;999.90;;;12.30;99.90;;;;;;5081837;28;20566;-66
2022/10/15 02:22:04;;;;;;;1999.90;999.90;;;12.30;99.90;;;;;;5080972;28;20130;-65
2022/10/15 02:24:52;;;;;;;1999.90;999.90;;;12.30;99.90;;;;;;5098838;28;20078;-66
2022/10/15 02:27:20;;;;;;;1999.90;999.90;;;12.30;99.90;;;;;;5111890;27;21046;-66
2022/10/15 02:29:47;;;;;;;1999.90;999.90;;;12.30;99.90;;;;;;5075510;28;20058;-66
2022/10/15 02:32:15;;;;;;;1999.90;999.90;;;12.30;99.90;;;;;;5111217;28;20024;-65
2022/10/15 02:34:41;;;;;;;1999.90;999.90;;;12.30;99.90;;;;;;5109905;28;20039;-66
2022/10/15 02:37:08;;;;;;;1999.90;999.90;;;12.30;99.90;;;;;;5101221;28;20031;-66
2022/10/15 02:39:33;;;;;;;1999.90;999.90;;;12.30;99.90;;;;;;5096573;28;20044;-66
2022/10/15 02:41:59;;;;;;;1999.90;999.90;;;12.30;99.90;;;;;;5094733;27;20047;-66
2022/10/15 02:44:26;;;;;;;1999.90;999.90;;;12.20;99.90;;;;;;5092000;28;20063;-66
2022/10/15 02:46:51;;;;;;;1999.90;999.90;;;12.20;99.90;;;;;;5091979;28;20055;-66
2022/10/15 02:49:17;;;;;;;1999.90;999.90;;;12.20;99.90;;;;;;5074381;28;20385;-66
2022/10/15 02:51:43;;;;;;;1999.90;999.90;;;12.20;99.90;;;;;;5092237;28;20044;-66
2022/10/15 02:54:08;;;;;;;1999.90;999.90;;;12.20;99.90;;;;;;5126572;27;20039;-66
2022/10/15 02:56:34;;;;;;;1999.90;999.90;;;12.20;99.90;;;;;;5084271;28;20075;-66
2022/10/15 02:59:00;;;;;;;1999.90;999.90;;;12.20;99.90;;;;;;5113124;27;20043;-65
2022/10/15 03:01:26;;;;;;;1999.90;999.90;;;12.20;99.90;;;;;;5095091;28;20059;-66
2022/10/15 03:03:51;;;;;;;1999.90;999.90;;;12.20;99.90;;;;;;5091148;28;20121;-66
2022/10/15 03:06:17;;;;;;;1999.90;999.90;;;12.20;99.90;;;;;;5109524;28;20035;-66
2022/10/15 03:08:43;;;;;;;1999.90;999.90;;;12.20;99.90;;;;;;5090473;28;20039;-66
2022/10/15 03:11:09;;;;;;;1999.90;999.90;;;12.20;99.90;;;;;;5094289;28;20477;-66
2022/10/15 03:13:36;;;;;;;1999.90;999.90;;;12.20;99.90;;;;;;5112881;27;20066;-66
2022/10/15 03:16:06;;;;;;;1999.90;999.90;;;12.10;99.90;;;;;;5074698;28;20051;-65
2022/10/15 03:18:32;;;;;;;1999.90;999.90;;;12.10;99.90;;;;;;5091178;28;20054;-66
2022/10/15 03:20:59;;;;;;;1999.90;999.90;;;12.10;99.90;;;;;;5113918;27;20038;-66
2022/10/15 03:23:25;;;;;;;1999.90;999.90;;;12.10;99.90;;;;;;5112755;27;20370;-66
2022/10/15 03:25:51;;;;;;;1999.90;999.90;;;12.10;99.90;;;;;;5079544;27;20157;-66
2022/10/15 03:28:17;;;;;;;1999.90;999.90;;;12.10;99.90;;;;;;5096423;28;20050;-66
2022/10/15 03:30:43;;;;;;;1999.90;999.90;;;12.20;99.90;;;;;;5101906;27;20537;-66
2022/10/15 03:33:09;;;;;;;1999.90;999.90;;;12.20;99.90;;;;;;5114033;27;20036;-66
2022/10/15 03:35:35;;;;;;;1999.90;999.90;;;12.20;99.90;;;;;;5114147;27;20515;-66
2022/10/15 03:38:00;;;;;;;1999.90;999.90;;;12.20;99.90;;;;;;5106136;27;20083;-66
2022/10/15 03:40:26;;;;;;;1999.90;999.90;;;12.20;99.90;;;;;;5089069;27;20043;-66
2022/10/15 03:42:52;;;;;;;1999.90;999.90;;;12.20;99.90;;;;;;5109722;27;20036;-66
2022/10/15 03:45:19;;;;;;;1999.90;999.90;;;12.20;99.90;;;;;;5093640;28;20058;-66
2022/10/15 03:47:45;;;;;;;1999.90;999.90;;;12.20;99.90;;;;;;5079508;27;20035;-66
2022/10/15 03:50:10;;;;;;;1999.90;999.90;;;12.20;99.90;;;;;;5079844;28;20039;-66
2022/10/15 03:52:37;;;;;;;1999.90;999.90;;;12.20;99.90;;;;;;5111655;27;20461;-66
2022/10/15 03:55:03;;;;;;;1999.90;999.90;;;12.30;99.90;;;;;;5095393;27;20043;-66
2022/10/15 03:57:29;;;;;;;1999.90;999.90;;;12.20;99.90;;;;;;5094715;28;21604;-66
2022/10/15 03:59:55;;;;;;;1999.90;999.90;;;12.20;99.90;;;;;;5108909;28;20036;-66
2022/10/15 04:02:20;;;;;;;1999.90;999.90;;;12.20;99.90;;;;;;5107917;28;20479;-66
2022/10/15 04:04:46;;;;;;;1999.90;999.90;;;12.30;99.90;;;;;;5101655;27;20051;-65
2022/10/15 04:07:12;;;;;;;1999.90;999.90;;;12.20;99.90;;;;;;5077313;28;20051;-65
2022/10/15 04:09:37;;;;;;;1999.90;999.90;;;12.20;99.90;;;;;;5108733;28;20044;-65
2022/10/15 04:12:03;;;;;;;1999.90;999.90;;;12.20;99.90;;;;;;5108518;28;20043;-65
2022/10/15 04:14:29;;;;;;;1999.90;999.90;;;12.20;99.90;;;;;;5100991;28;20088;-65
2022/10/15 04:16:57;;;;;;;1999.90;999.90;;;12.20;99.90;;;;;;5110823;27;20035;-65
2022/10/15 04:19:23;;;;;;;1999.90;999.90;;;12.20;99.90;;;;;;5107764;28;20044;-65
2022/10/15 04:21:49;;;;;;;1999.90;999.90;;;12.10;99.90;;;;;;5108120;28;20464;-66
2022/10/15 04:24:14;;;;;;;1999.90;999.90;;;12.20;99.90;;;;;;5065368;28;20054;-65
2022/10/15 04:26:40;;;;;;;1999.90;999.90;;;12.20;99.90;;;;;;5110831;27;20042;-65
2022/10/15 04:29:05;;;;;;;1999.90;999.90;;;12.20;99.90;;;;;;5100642;28;20480;-65
2022/10/15 04:31:31;;;;;;;1999.90;999.90;;;12.10;99.90;;;;;;5081983;28;20041;-65
2022/10/15 04:33:56;;;;;;;1999.90;999.90;;;12.20;99.90;;;;;;5104264;28;20127;-65
2022/10/15 04:36:22;;;;;;;1999.90;999.90;;;12.10;99.90;;;;;;5090735;28;20502;-65
2022/10/15 04:38:47;;;;;;;1999.90;999.90;;;12.10;99.90;;;;;;5092942;27;20051;-65
2022/10/15 04:41:13;;;;;;;1999.90;999.90;;;12.10;99.90;;;;;;5117124;27;20040;-65
2022/10/15 04:43:39;;;;;;;1999.90;999.90;;;12.10;99.90;;;;;;5095066;28;20138;-65
2022/10/15 04:46:06;;;;;;;1999.90;999.90;;;12.10;99.90;;;;;;5106028;28;20042;-66
2022/10/15 04:48:34;;;;;;;1999.90;999.90;;;12.10;99.90;;;;;;5098016;28;20043;-66
2022/10/15 04:51:25;;;;;;;1999.90;999.90;;;12.10;99.90;;;;;;5089075;28;20050;-66
2022/10/15 04:53:50;;;;;;;1999.90;999.90;;;12.10;99.90;;;;;;5104677;27;20043;-66
2022/10/15 04:56:18;;;;;;;1999.90;999.90;;;12.10;99.90;;;;;;5110023;28;20050;-66
2022/10/15 04:58:46;;;;;;;1999.90;999.90;;;12.10;99.90;;;;;;5089718;28;20050;-66
2022/10/15 05:01:15;;;;;;;1999.90;999.90;;;12.10;99.90;;;;;;5107778;28;20043;-66
2022/10/15 05:03:42;;;;;;;1999.90;999.90;;;12.00;99.90;;;;;;5098912;27;20051;-66
2022/10/15 05:06:14;;;;;;;1999.90;999.90;;;12.00;99.90;;;;;;5113591;27;20058;-66
2022/10/15 05:08:42;;;;;;;1999.90;999.90;;;12.00;99.90;;;;;;5109017;27;20035;-65
2022/10/15 05:11:11;;;;;;;1999.90;999.90;;;12.00;99.90;;;;;;5113965;27;20042;-66
2022/10/15 05:13:37;;;;;;;1999.90;999.90;;;12.00;99.90;;;;;;5100477;28;20085;-66
2022/10/15 05:16:11;;;;;;;1999.90;999.90;;;12.00;99.90;;;;;;5089353;28;20495;-66
2022/10/15 05:18:37;;;;;;;1999.90;999.90;;;12.00;99.90;;;;;;5097927;28;20051;-66
2022/10/15 05:21:04;;;;;;;1999.90;999.90;;;12.00;99.90;;;;;;5107382;28;20043;-66
2022/10/15 05:23:29;;;;;;;1999.90;999.90;;;12.00;99.90;;;;;;5106670;28;20039;-66
2022/10/15 05:25:59;;;;;;;1999.90;999.90;;;12.00;99.90;;;;;;5070926;28;20047;-66
2022/10/15 05:28:24;;;;;;;1999.90;999.90;;;12.00;99.90;;;;;;5103287;28;20122;-66
2022/10/15 05:30:50;;;;;;;1999.90;999.90;;;12.00;99.90;;;;;;5108262;28;20536;-66
2022/10/15 05:33:15;;;;;;;1999.90;999.90;;;12.00;99.90;;;;;;5107806;28;20045;-65
2022/10/15 05:35:41;;;;;;;1999.90;999.90;;;12.00;99.90;;;;;;5089287;28;20036;-66
2022/10/15 05:38:07;;;;;;;1999.90;999.90;;;12.00;99.90;;;;;;5108015;28;20110;-66
2022/10/15 05:40:32;;;;;;;1999.90;999.90;;;12.00;99.90;;;;;;5108643;28;20469;-66
2022/10/15 05:42:58;;;;;;;1999.90;999.90;;;11.90;99.90;;;;;;5095768;28;20477;-65
2022/10/15 05:45:24;;;;;;;1999.90;999.90;;;12.00;99.90;;;;;;5099452;28;20056;-65
2022/10/15 05:47:55;;;;;;;1999.90;999.90;;;11.90;99.90;;;;;;5089228;28;20822;-66
2022/10/15 05:50:24;;;;;;;1999.90;999.90;;;11.90;99.90;;;;;;5121027;28;20044;-66
2022/10/15 05:52:49;;;;;;;1999.90;999.90;;;11.90;99.90;;;;;;5110727;28;20035;-65
2022/10/15 05:55:15;;;;;;;1999.90;999.90;;;12.00;99.90;;;;;;5090228;28;20068;-66
2022/10/15 05:57:41;;;;;;;1999.90;999.90;;;11.90;99.90;;;;;;5114724;28;20035;-67
2022/10/15 06:00:07;;;;;;;1999.90;999.90;;;11.90;99.90;;;;;;5090829;28;20039;-65
2022/10/15 06:02:33;;;;;;;1999.90;999.90;;;11.90;99.90;;;;;;5093031;28;20080;-66
2022/10/15 06:04:59;;;;;;;1999.90;999.90;;;12.00;99.90;;;;;;5097278;28;20039;-66
2022/10/15 06:07:25;;;;;;;1999.90;999.90;;;11.90;99.90;;;;;;5092490;28;20055;-66
2022/10/15 06:09:51;;;;;;;1999.90;999.90;;;12.00;99.90;;;;;;5110895;28;20417;-66
2022/10/15 06:12:16;;;;;;;1999.90;999.90;;;12.00;99.90;;;;;;5092698;28;20040;-66
2022/10/15 06:14:42;;;;;;;1999.90;999.90;;;12.00;99.90;;;;;;5092748;28;20088;-66
2022/10/15 06:17:07;;;;;;;1999.90;999.90;;;12.00;99.90;;;;;;5110438;28;20408;-66
2022/10/15 06:19:33;;;;;;;1999.90;999.90;;;12.00;99.90;;;;;;5060103;28;20409;-65
2022/10/15 06:21:58;;;;;;;1999.90;999.90;;;12.00;99.90;;;;;;5104642;27;20502;-66
2022/10/15 06:24:24;;;;;;;1999.90;999.90;;;12.00;99.90;;;;;;5091818;27;20489;-66
2022/10/15 06:26:49;;;;;;;1999.90;999.90;;;12.00;99.90;;;;;;5112525;27;20051;-67
2022/10/15 06:29:15;;;;;;;1999.90;999.90;;;12.00;99.90;;;;;;5104963;27;20044;-66
2022/10/15 06:31:41;;;;;;;1999.90;999.90;;;12.00;99.90;;;;;;5097128;27;20043;-66
2022/10/15 06:34:06;;;;;;;1999.90;999.90;;;12.00;99.90;;;;;;5117065;27;20044;-65
2022/10/15 06:36:32;;;;;;;1999.90;999.90;;;12.00;99.90;;;;;;5109983;28;20458;-66
2022/10/15 06:38:57;;;;;;;1999.90;999.90;;;12.10;99.90;;;;;;5091999;28;20055;-66
2022/10/15 06:41:23;;;;;;;1999.90;999.90;;;12.10;99.90;;;;;;5093564;28;20138;-66
2022/10/15 06:43:49;;;;;;;1999.90;999.90;;;12.10;99.90;;;;;;5110314;28;20054;-66
2022/10/15 06:46:14;;;;;;;1999.90;999.90;;;12.10;99.90;;;;;;5110870;28;20071;-66
2022/10/15 06:48:40;;;;;;;1999.90;999.90;;;12.10;99.90;;;;;;5109212;27;20040;-66
2022/10/15 06:51:05;;;;;;;1999.90;999.90;;;12.10;99.90;;;;;;5111645;27;20553;-66
2022/10/15 06:53:31;;;;;;;1999.90;999.90;;;12.20;99.90;;;;;;5094504;27;20044;-65
2022/10/15 06:55:58;;;;;;;1999.90;999.90;;;12.20;99.90;;;;;;5110760;28;20040;-66
2022/10/15 06:58:24;;;;;;;1999.90;999.90;;;12.20;99.90;;;;;;5109817;28;20044;-66
2022/10/15 07:00:50;;;;;;;1999.90;999.90;;;12.20;99.90;;;;;;5089151;28;20066;-66
2022/10/15 07:03:15;;;;;;;1999.90;999.90;;;12.10;99.90;;;;;;5085357;28;20070;-65
2022/10/15 07:05:41;;;;;;;1999.90;999.90;;;12.10;99.90;;;;;;5091116;28;20397;-65
2022/10/15 07:08:06;;;;;;;1999.90;999.90;;;12.20;99.90;;;;;;5088212;28;20062;-65
2022/10/15 07:10:32;;;;;;;1999.90;999.90;;;12.20;99.90;;;;;;5092345;28;20051;-65
2022/10/15 07:13:01;;;;;;;1999.90;999.90;;;12.20;99.90;;;;;;5108925;27;20505;-65
2022/10/15 07:15:27;;;;;;;1999.90;999.90;;;12.10;99.90;;;;;;5102308;27;20462;-65
2022/10/15 07:17:55;;;;;;;1999.90;999.90;;;12.20;99.90;;;;;;5108133;28;20050;-66
2022/10/15 07:20:21;;;;;;;1999.90;999.90;;;12.20;99.90;;;;;;5109867;28;20044;-65
2022/10/15 07:22:47;;;;;;;1999.90;999.90;;;12.20;99.90;;;;;;5109812;28;20078;-65
2022/10/15 07:25:13;;;;;;;1999.90;999.90;;;12.20;99.90;;;;;;5109162;28;20074;-65
2022/10/15 07:27:39;;;;;;;1999.90;999.90;;;12.20;99.90;;;;;;5109904;28;20039;-65
2022/10/15 07:30:07;;;;;;;1999.90;999.90;;;12.20;99.90;;;;;;5089975;27;20070;-65
2022/10/15 07:32:33;;;;;;;1999.90;999.90;;;12.30;99.90;;;;;;5111882;27;20400;-65
2022/10/15 07:34:59;;;;;;;1999.90;999.90;;;12.30;99.90;;;;;;5107926;27;20637;-65
2022/10/15 07:37:24;;;;;;;1999.90;999.90;;;12.30;99.90;;;;;;5090322;28;20047;-65
2022/10/15 07:39:50;;;;;;;1999.90;999.90;;;12.30;99.90;;;;;;5111089;27;20128;-65
2022/10/15 07:42:15;;;;;;;1999.90;999.90;;;12.40;99.90;;;;;;5092920;28;20031;-65
2022/10/15 07:44:41;;;;;;;1999.90;999.90;;;12.40;99.90;;;;;;5077673;28;20063;-66
2022/10/15 07:47:07;;;;;;;1999.90;999.90;;;12.40;99.90;;;;;;5109027;28;20032;-66
2022/10/15 07:49:32;;;;;;;1999.90;999.90;;;12.50;99.90;;;;;;5109492;28;20504;-65
2022/10/15 07:51:58;;;;;;;1999.90;999.90;;;12.60;99.90;;;;;;5106972;27;20027;-65
2022/10/15 07:54:23;;;;;;;1999.90;999.90;;;12.70;99.90;;;;;;5113007;27;20036;-65
2022/10/15 07:56:49;;;;;;;1999.90;999.90;;;12.70;99.90;;;;;;5099909;28;20496;-66
2022/10/15 07:59:15;;;;;;;1999.90;999.90;;;12.70;99.90;;;;;;5098241;28;20039;-65
2022/10/15 08:01:40;;;;;;;1999.90;999.90;;;12.60;99.90;;;;;;5107396;28;20122;-65
2022/10/15 08:04:06;;;;;;;1999.90;999.90;;;12.70;99.90;;;;;;5093691;28;20397;-65
2022/10/15 08:06:32;;;;;;;1999.90;999.90;;;12.70;99.90;;;;;;5108069;27;20764;-65
2022/10/15 08:08:57;;;;;;;1999.90;999.90;;;12.70;99.90;;;;;;5110868;27;20074;-65
2022/10/15 08:11:23;;;;;;;1999.90;999.90;;;12.80;99.90;;;;;;5107852;28;20058;-66
2022/10/15 08:13:51;;;;;;;1999.90;999.90;;;12.90;99.90;;;;;;5109508;28;20035;-65
2022/10/15 08:16:18;;;;;;;1999.90;999.90;;;12.90;99.90;;;;;;5100763;28;20050;-66
2022/10/15 08:18:44;;;;;;;1999.90;999.90;;;13.00;99.90;;;;;;5102998;27;20040;-66
2022/10/15 08:21:10;;;;;;;1999.90;999.90;;;13.00;99.90;;;;;;5108157;28;20546;-66
2022/10/15 08:23:36;;;;;;;1999.90;999.90;;;13.10;99.90;;;;;;5092253;27;20145;-65
2022/10/15 08:26:02;;;;;;;1999.90;999.90;;;13.10;99.90;;;;;;5107109;27;20051;-65
2022/10/15 08:28:29;;;;;;;1999.90;999.90;;;13.20;99.90;;;;;;5088300;27;20051;-65
2022/10/15 08:30:59;;;;;;;1999.90;999.90;;;13.20;99.90;;;;;;5107576;27;20040;-66
2022/10/15 08:33:25;;;;;;;1999.90;999.90;;;13.20;99.90;;;;;;5106122;27;20366;-66
2022/10/15 08:35:51;;;;;;;1999.90;999.90;;;13.30;99.90;;;;;;5106403;28;20043;-66
2022/10/15 08:38:17;;;;;;;1999.90;999.90;;;13.30;99.90;;;;;;5107700;28;20043;-66
2022/10/15 08:40:50;;;;;;;1999.90;999.90;;;13.40;99.90;;;;;;5091752;28;20039;-66
2022/10/15 08:43:29;;;;;;;1999.90;999.90;;;13.40;99.90;;;;;;5107411;27;20043;-65
2022/10/15 08:45:59;;;;;;;1999.90;999.90;;;13.50;99.90;;;;;;5096358;27;20040;-66
2022/10/15 08:48:31;;;;;;;1999.90;999.90;;;13.50;99.90;;;;;;5101122;28;20043;-65
2022/10/15 08:51:25;;;;;;;1999.90;999.90;;;13.50;99.90;;;;;;5103193;27;20089;-66
2022/10/15 08:53:59;;;;;;;1999.90;999.90;;;13.50;99.90;;;;;;5059284;28;20485;-66
2022/10/15 08:56:38;;;;;;;1999.90;999.90;;;13.60;99.90;;;;;;5080254;28;20031;-65
2022/10/15 08:59:37;;;;;;;1999.90;999.90;;;13.60;99.90;;;;;;5106355;27;20031;-66
2022/10/15 09:02:25;;;;;;;1999.90;999.90;;;13.60;99.90;;;;;;5083715;28;20059;-66
2022/10/15 09:05:23;;;;;;;1999.90;999.90;;;13.60;99.90;;;;;;5102888;28;20042;-66
2022/10/15 09:08:30;;;;;;;1999.90;999.90;;;13.70;99.90;;;;;;5101036;27;20435;-65
2022/10/15 09:11:06;;;;;;;1999.90;999.90;;;13.70;99.90;;;;;;5105719;27;20051;-66
2022/10/15 09:13:39;;;;;;;1999.90;999.90;;;13.70;99.90;;;;;;5107766;28;20075;-65
2022/10/15 09:16:20;;;;;;;1999.90;999.90;;;13.70;99.90;;;;;;5090393;28;20148;-65
2022/10/15 09:18:51;;;;;;;1999.90;999.90;;;13.70;99.90;;;;;;5105148;28;20046;-65
2022/10/15 09:21:18;;;;;;;1999.90;999.90;;;13.70;99.90;;;;;;5107714;28;20390;-65
2022/10/15 09:23:44;;;;;;;1999.90;999.90;;;13.70;99.90;;;;;;5092355;28;20168;-65
2022/10/15 09:26:23;;;;;;;1999.90;999.90;;;13.70;99.90;;;;;;5099121;28;20066;-65
2022/10/15 09:29:01;;;;;;;1999.90;999.90;;;13.70;99.90;;;;;;5074863;28;20051;-65
2022/10/15 09:31:34;;;;;;;1999.90;999.90;;;13.70;99.90;;;;;;5104718;27;20039;-65
2022/10/15 09:34:43;;;;;;;1999.90;999.90;;;13.70;99.90;;;;;;5107565;27;20434;-66
2022/10/15 09:37:28;;;;;;;1999.90;999.90;;;13.60;99.90;;;;;;5031355;28;20103;-65
2022/10/15 09:40:23;;;;;;;1999.90;999.90;;;13.60;99.90;;;;;;5092074;28;20060;-65
2022/10/15 09:42:51;;;;;;;1999.90;999.90;;;13.60;99.90;;;;;;5081020;28;20561;-65
2022/10/15 09:45:18;;;;;;;1999.90;999.90;;;13.50;99.90;;;;;;5124914;27;20600;-65
2022/10/15 09:47:43;;;;;;;1999.90;999.90;;;13.50;99.90;;;;;;5102175;27;20059;-65
2022/10/15 09:50:12;;;;;;;1999.90;999.90;;;13.50;99.90;;;;;;5108504;27;20414;-65
2022/10/15 09:53:09;;;;;;;1999.90;999.90;;;13.40;99.90;;;;;;5102254;27;20051;-66
2022/10/15 09:56:00;;;;;;;1999.90;999.90;;;13.40;99.90;;;;;;5095681;28;20504;-65
2022/10/15 09:58:32;;;;;;;1999.90;999.90;;;13.40;99.90;;;;;;5110265;28;20052;-65
2022/10/15 10:01:03;;;;;;;1999.90;999.90;;;13.30;99.90;;;;;;5105764;27;20119;-65
2022/10/15 10:03:31;;;;;;;1999.90;999.90;;;13.30;99.90;;;;;;5090589;28;20123;-65
2022/10/15 10:06:07;;;;;;;1999.90;999.90;;;13.30;99.90;;;;;;5103143;27;20055;-66
2022/10/15 10:08:49;;;;;;;1999.90;999.90;;;13.30;99.90;;;;;;5107165;28;20043;-65
2022/10/15 10:11:14;;;;;;;1999.90;999.90;;;13.40;99.90;;;;;;5115673;27;20039;-65
2022/10/15 10:13:59;;;;;;;1999.90;999.90;;;13.40;99.90;;;;;;5108970;27;20039;-65
2022/10/15 10:16:25;;;;;;;1999.90;999.90;;;13.50;99.90;;;;;;5111966;27;20067;-66
2022/10/15 10:19:11;;;;;;;1999.90;999.90;;;13.60;99.90;;;;;;5102438;27;20047;-66
2022/10/15 10:21:40;;;;;;;1999.90;999.90;;;13.60;99.90;;;;;;5100917;27;20485;-65
2022/10/15 10:24:30;;;;;;;1999.90;999.90;;;13.70;99.90;;;;;;5111935;27;20043;-66
2022/10/15 10:26:57;;;;;;;1999.90;999.90;;;13.80;99.90;;;;;;5107515;27;20158;-66
2022/10/15 10:29:24;;;;;;;1999.90;999.90;;;13.80;99.90;;;;;;5114424;27;20092;-66
2022/10/15 10:31:51;;;;;;;1999.90;999.90;;;13.90;99.90;;;;;;5095135;28;20114;-65
2022/10/15 10:34:27;;;;;;;1999.90;999.90;;;13.90;99.90;;;;;;5088030;28;20097;-66
2022/10/15 10:36:54;;;;;;;1999.90;999.90;;;13.90;99.90;;;;;;5088318;27;20054;-66
2022/10/15 10:39:29;;;;;;;1999.90;999.90;;;13.90;99.90;;;;;;5114676;27;20055;-65
2022/10/15 10:42:21;;;;;;;1999.90;999.90;;;14.00;99.90;;;;;;5110060;27;20575;-65
2022/10/15 10:44:47;;;;;;;1999.90;999.90;;;14.00;99.90;;;;;;5100489;28;20790;-66
2022/10/15 10:47:18;;;;;;;1999.90;999.90;;;14.10;99.90;;;;;;5102476;27;20040;-66
2022/10/15 10:49:50;;;;;;;1999.90;999.90;;;14.20;99.90;;;;;;5107755;27;20050;-66
2022/10/15 10:52:31;;;;;;;1999.90;999.90;;;14.40;99.90;;;;;;5090086;28;20051;-65
2022/10/15 10:55:17;;;;;;;1999.90;999.90;;;14.40;99.90;;;;;;5103494;28;20035;-66
2022/10/15 10:57:49;;;;;;;1999.90;999.90;;;14.50;99.90;;;;;;5076728;28;20043;-66
2022/10/15 11:00:18;;;;;;;1999.90;999.90;;;14.50;99.90;;;;;;5094703;28;20086;-65
2022/10/15 11:02:44;;;;;;;1999.90;999.90;;;14.60;99.90;;;;;;5078360;28;20065;-65
2022/10/15 11:05:11;;;;;;;1999.90;999.90;;;14.60;99.90;;;;;;5093229;27;20428;-66
2022/10/15 11:07:45;;;;;;;1999.90;999.90;;;14.60;99.90;;;;;;5087860;27;20043;-66
2022/10/15 11:10:24;;;;;;;1999.90;999.90;;;14.60;99.90;;;;;;5104895;27;20127;-66
2022/10/15 11:13:02;;;;;;;1999.90;999.90;;;14.60;99.90;;;;;;5087250;28;20051;-65
2022/10/15 11:15:43;;;;;;;1999.90;999.90;;;14.60;99.90;;;;;;5092853;27;20074;-66
2022/10/15 11:18:42;;;;;;;1999.90;999.90;;;14.80;99.90;;;;;;5089542;28;20111;-65
2022/10/15 11:21:21;;;;;;;1999.90;999.90;;;14.90;99.90;;;;;;5107174;27;20069;-65
2022/10/15 11:24:01;;;;;;;1999.90;999.90;;;15.00;99.90;;;;;;5088256;28;20046;-65
2022/10/15 11:26:46;;;;;;;1999.90;999.90;;;15.00;99.90;;;;;;5120889;27;20675;-65
2022/10/15 11:29:41;;;;;;;1999.90;999.90;;;14.90;99.90;;;;;;5109931;27;20049;-66
2022/10/15 11:32:44;;;;;;;1999.90;999.90;;;14.90;99.90;;;;;;5088786;28;20537;-66
2022/10/15 11:35:35;;;;;;;1999.90;999.90;;;14.90;99.90;;;;;;5107098;28;20437;-66
2022/10/15 11:38:34;;;;;;;1999.90;999.90;;;15.00;99.90;;;;;;5104872;28;20289;-66
2022/10/15 11:41:31;;;;;;;1999.90;999.90;;;15.10;99.90;;;;;;5087768;28;20043;-65
2022/10/15 11:44:11;;;;;;;1999.90;999.90;;;15.20;99.90;;;;;;5108646;28;20402;-65
2022/10/15 11:47:04;;;;;;;1999.90;999.90;;;15.40;99.90;;;;;;5103512;27;20122;-65
2022/10/15 11:50:01;;;;;;;1999.90;999.90;;;15.50;99.90;;;;;;5105302;28;20047;-66
2022/10/15 11:53:07;;;;;;;1999.90;999.90;;;15.40;99.90;;;;;;5107158;27;20043;-66
2022/10/15 11:55:43;;;;;;;1999.90;999.90;;;15.40;99.90;;;;;;5082739;28;20055;-65
2022/10/15 11:58:16;;;;;;;1999.90;999.90;;;15.50;99.90;;;;;;5069604;28;20040;-66
2022/10/15 12:00:50;;;;;;;1999.90;999.90;;;15.60;99.90;;;;;;5095318;28;20088;-66
2022/10/15 12:03:21;;;;;;;1999.90;999.90;;;15.80;99.90;;;;;;5092795;27;20037;-66
2022/10/15 12:06:04;;;;;;;1999.90;999.90;;;15.80;99.90;;;;;;5084738;28;20046;-66
2022/10/15 12:08:33;;;;;;;1999.90;999.90;;;15.70;99.90;;;;;;5094992;27;20042;-65
2022/10/15 12:11:18;;;;;;;1999.90;999.90;;;15.60;99.90;;;;;;5095863;27;20043;-66
2022/10/15 12:13:57;;;;;;;1999.90;999.90;;;15.60;99.90;;;;;;5089378;28;20062;-66
2022/10/15 12:16:41;;;;;;;1999.90;999.90;;;15.50;99.90;;;;;;5088473;28;20040;-65
2022/10/15 12:19:19;;;;;;;1999.90;999.90;;;15.50;99.90;;;;;;5083574;28;20054;-66
2022/10/15 12:21:54;;;;;;;1999.90;999.90;;;15.50;99.90;;;;;;5100704;27;20086;-65